Lancaster, Kansas
Current Conditions -  °F | °C
As of 3:53 PM on Sunday 23 Nov 2014 (Local Time) from KSTJ Reporting Station
Overcast Overcast  
Wind Chill: 39°   Ceiling: 2500
Heat Index: 47°   Visibility: 10mi
Dew Point: 42°   Wind: 22mph
Humidity: 83%   Direction: 350°N
Pressure: 29.39"   Gusts: 32mph
Location:  39.57°N, 95.3°W
Report Text: KSTJ 232153Z 35019G28KT 10SM OVC025 08/06 A2939 RMK AO2 PK WND 34031/2117 SLP952 T00830056
Loading
Personal Weather Stations






























Interactive Weather Map New forecast layout! Learn more

10-Day Weather Forecast

Advertisements
Track Severe Weather on mobile